Time;durP1;ratioP1;P1;durP2;ratioP2;P2;SDS_P1;SDS_P2;PMS_P1;PMS_P2;Temp;Humidity;BMP_temperature;BMP_pressure;BME280_temperature;BME280_humidity;BME280_pressure;Samples;Min_cycle;Max_cycle;Signal;HPM_P1;HPM_P2
2022/10/13 00:00:11;;;;;;;16.30;5.15;;;;;;;13.75;53.24;101859.91;5032107;27;97551;-65
2022/10/13 00:02:38;;;;;;;18.05;5.15;;;;;;;13.75;53.05;101854.59;5033333;27;98235;-65
2022/10/13 00:05:04;;;;;;;11.18;4.68;;;;;;;13.65;53.17;101852.28;5036386;27;99749;-65
2022/10/13 00:07:31;;;;;;;16.58;4.55;;;;;;;13.66;53.58;101862.81;5031350;28;100228;-66
2022/10/13 00:09:57;;;;;;;14.57;5.40;;;;;;;13.54;53.66;101860.53;5028517;27;97790;-66
2022/10/13 00:12:25;;;;;;;11.50;4.25;;;;;;;13.62;53.69;101857.66;5026134;28;96987;-65
2022/10/13 00:14:51;;;;;;;14.30;5.45;;;;;;;13.57;53.69;101856.03;5026461;28;101023;-66
2022/10/13 00:17:18;;;;;;;17.30;5.35;;;;;;;13.62;53.68;101853.22;5029926;27;99197;-65
2022/10/13 00:19:44;;;;;;;13.30;5.00;;;;;;;13.59;53.60;101857.78;5029710;28;97640;-66
2022/10/13 00:22:10;;;;;;;13.85;5.15;;;;;;;13.46;53.98;101851.94;5031053;27;96927;-66
2022/10/13 00:24:37;;;;;;;14.32;5.60;;;;;;;13.61;53.60;101846.16;5029120;28;100784;-66
2022/10/13 00:27:03;;;;;;;18.27;5.00;;;;;;;13.66;53.48;101843.34;5027508;28;101378;-66
2022/10/13 00:29:31;;;;;;;22.85;5.85;;;;;;;13.86;52.79;101839.16;5029228;28;97181;-66
2022/10/13 00:31:57;;;;;;;17.25;5.28;;;;;;;13.44;53.70;101841.38;5031147;27;96843;-65
2022/10/13 00:34:23;;;;;;;18.45;5.38;;;;;;;13.51;53.62;101847.38;5029532;27;99332;-65
2022/10/13 00:36:50;;;;;;;14.00;4.82;;;;;;;13.50;53.74;101842.97;5029242;28;99242;-65
2022/10/13 00:39:16;;;;;;;17.38;5.80;;;;;;;13.50;53.57;101838.53;5028218;28;97634;-65
2022/10/13 00:41:42;;;;;;;15.32;5.07;;;;;;;13.59;53.56;101834.72;5029947;28;96943;-65
2022/10/13 00:44:42;;;;;;;19.27;5.63;;;;;;;13.37;54.17;101841.59;5028956;27;99201;-66
2022/10/13 00:47:10;;;;;;;10.73;5.05;;;;;;;13.50;53.52;101837.66;5027615;28;98973;-66
2022/10/13 00:49:37;;;;;;;11.88;4.63;;;;;;;13.43;53.88;101841.41;5029849;27;97030;-66
2022/10/13 00:52:04;;;;;;;13.40;4.95;;;;;;;13.44;53.91;101840.50;5029651;28;98711;-66
2022/10/13 00:54:30;;;;;;;13.07;4.70;;;;;;;13.42;53.78;101839.66;5030566;28;97766;-65
2022/10/13 00:56:57;;;;;;;11.23;4.60;;;;;;;13.44;53.81;101833.41;5029882;28;98820;-67
2022/10/13 00:59:27;;;;;;;23.00;6.38;;;;;;;13.11;54.75;101839.69;5031277;28;96880;-67
2022/10/13 01:01:55;;;;;;;15.00;4.80;;;;;;;13.48;53.94;101832.38;5029101;27;96917;-66
2022/10/13 01:04:27;;;;;;;11.48;5.07;;;;;;;13.28;54.40;101841.88;5030833;28;99541;-67
2022/10/13 01:06:56;;;;;;;22.83;6.82;;;;;;;13.31;54.36;101833.81;5029089;28;102028;-67
2022/10/13 01:09:22;;;;;;;14.88;5.57;;;;;;;13.27;54.38;101840.13;5026444;27;97206;-66
2022/10/13 01:12:02;;;;;;;16.90;6.00;;;;;;;13.20;54.67;101838.56;5026429;27;96957;-66
2022/10/13 01:14:35;;;;;;;14.00;4.97;;;;;;;13.27;54.35;101833.03;5027999;27;101009;-66
2022/10/13 01:17:09;;;;;;;18.10;5.28;;;;;;;13.25;54.33;101828.69;5026233;28;99233;-66
2022/10/13 01:20:04;;;;;;;16.35;5.25;;;;;;;12.99;55.24;101824.97;5025067;28;98848;-66
2022/10/13 01:22:45;;;;;;;16.27;5.40;;;;;;;13.06;55.23;101830.97;5025860;28;98720;-67
2022/10/13 01:25:26;;;;;;;19.27;5.90;;;;;;;13.01;55.28;101825.78;5025593;28;97741;-65
2022/10/13 01:28:13;;;;;;;15.65;5.30;;;;;;;13.25;54.59;101820.72;5029156;28;99136;-66
2022/10/13 01:30:46;;;;;;;13.10;5.50;;;;;;;13.19;54.68;101826.22;5024840;28;97161;-65
2022/10/13 01:33:28;;;;;;;16.20;5.07;;;;;;;13.09;55.15;101821.13;5026497;27;96809;-66
2022/10/13 01:36:05;;;;;;;24.15;5.72;;;;;;;13.21;54.81;101813.75;5022600;27;99365;-65
2022/10/13 01:38:38;;;;;;;14.45;5.50;;;;;;;13.06;55.07;101810.59;5027821;28;98782;-66
2022/10/13 01:41:12;;;;;;;14.07;4.78;;;;;;;13.32;54.35;101811.69;5026695;28;97763;-66
2022/10/13 01:43:43;;;;;;;12.73;5.57;;;;;;;13.09;55.07;101810.53;5028503;28;96762;-66
2022/10/13 01:46:14;;;;;;;12.48;5.20;;;;;;;13.41;54.14;101798.09;5028630;28;99229;-66
2022/10/13 01:48:43;;;;;;;18.20;5.47;;;;;;;13.07;54.99;101807.03;5029259;28;98827;-66
2022/10/13 01:51:14;;;;;;;14.57;5.40;;;;;;;13.27;54.24;101803.81;5027513;28;96852;-66
2022/10/13 01:53:42;;;;;;;11.30;5.85;;;;;;;13.24;54.43;101801.28;5025880;28;97893;-65
2022/10/13 01:56:08;;;;;;;17.02;5.07;;;;;;;13.25;54.57;101799.50;5029176;28;99273;-66
2022/10/13 01:58:37;;;;;;;12.77;5.10;;;;;;;13.30;54.08;101802.88;5030489;27;99275;-65
2022/10/13 02:01:17;;;;;;;18.25;5.25;;;;;;;13.20;55.05;101793.44;5027366;27;97754;-66
2022/10/13 02:03:57;;;;;;;16.35;5.28;;;;;;;13.11;54.91;101792.78;5028258;28;97488;-65
2022/10/13 02:06:30;;;;;;;14.32;5.13;;;;;;;13.08;55.03;101792.84;5029674;28;99276;-66
2022/10/13 02:09:02;;;;;;;19.52;5.93;;;;;;;12.98;55.32;101787.88;5024439;28;98994;-66
2022/10/13 02:11:28;;;;;;;11.05;4.80;;;;;;;13.11;54.80;101786.59;5027229;28;96840;-66
2022/10/13 02:14:01;;;;;;;17.60;5.57;;;;;;;13.19;54.69;101778.44;5024744;28;98981;-67
2022/10/13 02:16:33;;;;;;;11.80;5.00;;;;;;;13.00;55.14;101776.28;5028307;27;98996;-66
2022/10/13 02:19:03;;;;;;;15.43;5.90;;;;;;;12.85;55.49;101774.09;5028274;28;98991;-65
2022/10/13 02:21:30;;;;;;;14.38;5.60;;;;;;;12.74;55.84;101770.84;5028140;27;98730;-67
2022/10/13 02:23:57;;;;;;;16.40;5.43;;;;;;;12.91;55.24;101771.25;5026353;28;97195;-66
2022/10/13 02:26:24;;;;;;;15.77;4.97;;;;;;;12.85;55.66;101778.53;5028285;27;99111;-66
2022/10/13 02:28:51;;;;;;;11.95;5.00;;;;;;;12.90;55.34;101766.00;5025632;27;99000;-66
2022/10/13 02:31:18;;;;;;;35.60;6.68;;;;;;;12.87;55.63;101766.94;5028589;27;96675;-66
2022/10/13 02:33:45;;;;;;;13.38;5.60;;;;;;;13.10;54.65;101769.81;5026885;28;98213;-66
2022/10/13 02:36:12;;;;;;;13.93;5.15;;;;;;;13.03;55.09;101768.25;5027888;28;101186;-66
2022/10/13 02:38:38;;;;;;;18.52;6.13;;;;;;;13.06;54.94;101762.00;5026185;28;98775;-66
2022/10/13 02:41:04;;;;;;;13.25;5.63;;;;;;;13.37;54.01;101762.84;5023871;27;96781;-67
2022/10/13 02:43:32;;;;;;;18.85;5.80;;;;;;;13.03;54.90;101756.75;5026888;27;97050;-66
2022/10/13 02:45:59;;;;;;;17.38;6.20;;;;;;;12.97;55.19;101751.63;5027782;28;98956;-65
2022/10/13 02:48:25;;;;;;;17.08;5.45;;;;;;;12.81;55.63;101750.34;5026140;28;99055;-66
2022/10/13 02:50:53;;;;;;;16.65;5.90;;;;;;;13.06;54.86;101743.44;5027655;28;96826;-65
2022/10/13 02:53:19;;;;;;;16.20;6.15;;;;;;;12.63;55.90;101746.44;5027253;27;96815;-66
2022/10/13 02:55:47;;;;;;;14.55;5.70;;;;;;;12.72;55.65;101744.41;5025490;28;99304;-65
2022/10/13 02:58:13;;;;;;;12.82;5.88;;;;;;;13.06;54.91;101740.78;5025992;28;99346;-65
2022/10/13 03:00:39;;;;;;;15.23;5.90;;;;;;;12.51;56.25;101741.47;5019263;28;98286;-66
2022/10/13 03:03:06;;;;;;;13.63;5.68;;;;;;;12.83;55.33;101743.22;5025760;28;98677;-66
2022/10/13 03:05:33;;;;;;;15.57;5.88;;;;;;;12.63;56.03;101747.31;5028690;28;99663;-66
2022/10/13 03:08:00;;;;;;;17.52;6.00;;;;;;;12.67;56.01;101742.75;5024034;28;99290;-66
2022/10/13 03:10:28;;;;;;;13.00;5.47;;;;;;;12.78;55.54;101748.66;5022952;27;97049;-66
2022/10/13 03:12:54;;;;;;;13.73;5.47;;;;;;;12.57;56.31;101730.69;5024843;28;98828;-66
2022/10/13 03:15:21;;;;;;;13.68;5.70;;;;;;;12.60;56.39;101736.78;5026537;28;99550;-66
2022/10/13 03:17:47;;;;;;;13.85;6.00;;;;;;;12.61;56.15;101740.28;5026323;28;101603;-66
2022/10/13 03:20:14;;;;;;;15.32;5.60;;;;;;;12.61;56.26;101737.63;5026322;28;96798;-65
2022/10/13 03:22:40;;;;;;;14.85;5.45;;;;;;;12.64;55.74;101741.09;5022835;28;96777;-65
2022/10/13 03:25:08;;;;;;;14.43;6.05;;;;;;;12.68;55.99;101733.91;5024753;28;98936;-66
2022/10/13 03:27:35;;;;;;;13.18;5.53;;;;;;;12.55;56.44;101729.88;5026929;28;98792;-66
2022/10/13 03:30:01;;;;;;;20.65;6.10;;;;;;;12.50;56.24;101730.00;5025223;28;97169;-66
2022/10/13 03:32:30;;;;;;;16.05;6.10;;;;;;;12.36;56.98;101737.47;5026500;27;96861;-65
2022/10/13 03:34:56;;;;;;;17.65;5.70;;;;;;;12.35;56.94;101736.59;5025830;27;99493;-66
2022/10/13 03:37:22;;;;;;;16.33;6.10;;;;;;;12.71;55.95;101737.34;5026579;27;98364;-66
2022/10/13 03:39:49;;;;;;;19.30;7.07;;;;;;;12.81;55.32;101729.13;5022173;28;97189;-66
2022/10/13 03:42:17;;;;;;;12.30;5.70;;;;;;;12.81;55.47;101730.00;5029793;27;98393;-66
2022/10/13 03:44:43;;;;;;;15.93;5.30;;;;;;;12.70;55.66;101721.47;5025689;28;97669;-66
2022/10/13 03:47:10;;;;;;;16.58;5.45;;;;;;;13.07;55.06;101713.28;5027214;27;99373;-66
2022/10/13 03:49:37;;;;;;;17.23;5.88;;;;;;;13.02;54.69;101709.91;5026513;28;97505;-65
2022/10/13 03:52:04;;;;;;;12.45;5.57;;;;;;;13.28;54.24;101714.44;5028102;27;96836;-66
2022/10/13 03:54:31;;;;;;;21.33;6.18;;;;;;;13.00;54.97;101709.94;5028135;28;101234;-65
2022/10/13 03:56:57;;;;;;;16.38;5.90;;;;;;;12.99;54.87;101708.25;5023416;28;100179;-65
2022/10/13 03:59:26;;;;;;;23.95;5.60;;;;;;;13.17;54.45;101714.81;5028920;28;97141;-65
2022/10/13 04:01:52;;;;;;;17.88;5.38;;;;;;;13.21;54.16;101707.59;5028127;28;96841;-65
2022/10/13 04:04:19;;;;;;;13.25;5.25;;;;;;;13.01;55.00;101705.53;5027975;28;99305;-65
2022/10/13 04:06:45;;;;;;;14.75;6.22;;;;;;;13.20;54.41;101704.06;5025890;28;98835;-66
2022/10/13 04:09:12;;;;;;;15.63;5.22;;;;;;;13.05;54.69;101702.75;5028592;27;96952;-65
2022/10/13 04:11:38;;;;;;;15.43;5.68;;;;;;;13.24;54.23;101708.38;5025913;27;97489;-65
2022/10/13 04:14:05;;;;;;;12.93;5.43;;;;;;;13.11;54.46;101707.00;5026352;28;100155;-65
2022/10/13 04:16:32;;;;;;;15.05;5.50;;;;;;;12.91;55.04;101698.78;5026791;27;99176;-65
2022/10/13 04:19:01;;;;;;;14.13;5.38;;;;;;;13.28;54.49;101703.84;5025351;28;97255;-67
2022/10/13 04:21:29;;;;;;;11.27;5.20;;;;;;;12.78;55.36;101701.78;5023977;27;96915;-66
2022/10/13 04:23:56;;;;;;;17.30;5.93;;;;;;;12.96;55.08;101708.31;5027152;27;99013;-65
2022/10/13 04:26:27;;;;;;;14.07;6.18;;;;;;;13.20;54.63;101712.03;5026464;28;99677;-66
2022/10/13 04:28:54;;;;;;;15.13;5.80;;;;;;;12.99;55.20;101707.38;5030547;28;96876;-66
2022/10/13 04:31:22;;;;;;;16.45;6.72;;;;;;;12.77;55.81;101708.00;5027659;27;98253;-66
2022/10/13 04:33:50;;;;;;;12.70;5.53;;;;;;;12.80;55.79;101701.72;5030874;28;101647;-65
2022/10/13 04:36:18;;;;;;;15.88;6.07;;;;;;;12.79;55.97;101692.06;5027285;28;99192;-66
2022/10/13 04:38:44;;;;;;;21.15;5.88;;;;;;;12.98;55.50;101695.03;5027903;28;96908;-66
2022/10/13 04:41:11;;;;;;;15.95;6.70;;;;;;;12.92;55.68;101695.22;5026167;28;97721;-66
2022/10/13 04:43:38;;;;;;;16.67;6.78;;;;;;;12.99;55.57;101692.31;5030626;28;100975;-66
2022/10/13 04:46:07;;;;;;;12.85;6.57;;;;;;;12.68;56.44;101687.03;5031244;27;98779;-65
2022/10/13 04:48:33;;;;;;;15.02;6.22;;;;;;;12.90;55.89;101687.28;5030145;27;97883;-65
2022/10/13 04:51:02;;;;;;;19.92;6.53;;;;;;;12.79;56.31;101686.75;5026096;28;96799;-65
2022/10/13 04:53:29;;;;;;;24.52;7.20;;;;;;;12.90;56.31;101691.72;5028795;27;99378;-66
2022/10/13 04:55:56;;;;;;;16.63;7.25;;;;;;;12.90;55.90;101681.97;5025650;28;99457;-66
2022/10/13 04:58:22;;;;;;;19.23;6.60;;;;;;;13.21;55.05;101686.38;5029095;28;98151;-66
2022/10/13 05:00:49;;;;;;;11.70;5.50;;;;;;;12.82;56.12;101676.03;5026201;27;96917;-66
2022/10/13 05:03:16;;;;;;;23.80;6.50;;;;;;;12.84;56.22;101673.34;5028907;28;98927;-65
2022/10/13 05:05:42;;;;;;;17.48;6.85;;;;;;;12.90;55.91;101676.69;5029760;28;99390;-66
2022/10/13 05:08:10;;;;;;;11.55;5.93;;;;;;;12.96;56.02;101676.50;5026675;27;98435;-65
2022/10/13 05:10:37;;;;;;;19.55;7.60;;;;;;;12.89;56.30;101680.25;5028231;28;97697;-65
2022/10/13 05:13:03;;;;;;;19.10;6.93;;;;;;;13.13;55.54;101675.97;5025154;27;99296;-65
2022/10/13 05:15:30;;;;;;;23.17;7.80;;;;;;;13.24;55.37;101673.00;5027880;28;99484;-65
2022/10/13 05:17:57;;;;;;;17.58;6.30;;;;;;;12.98;55.74;101685.28;5027192;28;98583;-67
2022/10/13 05:20:24;;;;;;;15.43;6.82;;;;;;;13.01;55.88;101679.00;5031123;28;96854;-65
2022/10/13 05:22:50;;;;;;;26.38;7.15;;;;;;;13.05;56.02;101670.91;5026526;28;98101;-66
2022/10/13 05:25:18;;;;;;;23.02;7.20;;;;;;;13.02;55.67;101675.44;5026379;28;98955;-66
2022/10/13 05:27:45;;;;;;;18.30;7.68;;;;;;;12.98;56.14;101668.50;5024198;28;97074;-67
2022/10/13 05:30:12;;;;;;;18.77;7.13;;;;;;;13.24;55.32;101671.22;5029232;28;97062;-66
2022/10/13 05:32:39;;;;;;;16.17;7.00;;;;;;;13.26;55.56;101669.38;5030011;27;98810;-66
2022/10/13 05:35:06;;;;;;;16.75;6.72;;;;;;;13.18;55.59;101675.88;5027543;28;99153;-66
2022/10/13 05:37:32;;;;;;;20.92;7.13;;;;;;;13.23;55.31;101663.31;5026799;27;97726;-66
2022/10/13 05:39:59;;;;;;;17.17;7.43;;;;;;;13.50;54.63;101671.25;5029443;28;97831;-65
2022/10/13 05:42:28;;;;;;;14.98;6.38;;;;;;;13.41;54.91;101668.88;5024987;27;98174;-66
2022/10/13 05:44:55;;;;;;;12.80;6.43;;;;;;;13.36;54.77;101664.66;5027374;27;100768;-66
2022/10/13 05:47:25;;;;;;;20.65;7.07;;;;;;;13.28;55.45;101658.72;5030973;27;97111;-65
2022/10/13 05:49:55;;;;;;;17.33;6.55;;;;;;;13.26;55.55;101655.25;5028006;28;96847;-66
2022/10/13 05:52:24;;;;;;;21.60;8.02;;;;;;;13.43;55.06;101660.88;5025451;27;98911;-67
2022/10/13 05:54:54;;;;;;;23.08;7.32;;;;;;;13.56;54.63;101663.09;5022023;27;99837;-65
2022/10/13 05:57:23;;;;;;;21.48;7.22;;;;;;;13.63;54.59;101663.75;5027770;28;97086;-66
2022/10/13 05:59:54;;;;;;;23.17;7.68;;;;;;;13.42;55.21;101670.63;5022042;28;98823;-66
2022/10/13 06:02:23;;;;;;;18.77;7.00;;;;;;;13.41;55.32;101668.88;5024568;28;99048;-66
2022/10/13 06:04:54;;;;;;;17.27;7.55;;;;;;;13.36;55.52;101669.97;5019410;27;97520;-66
2022/10/13 06:07:21;;;;;;;18.33;7.63;;;;;;;13.28;55.81;101662.25;5026951;27;96804;-66
2022/10/13 06:09:48;;;;;;;15.02;7.18;;;;;;;13.36;55.57;101670.84;5025337;28;97234;-67
2022/10/13 06:12:15;;;;;;;18.98;8.60;;;;;;;13.36;55.42;101664.66;5024968;28;99219;-65
2022/10/13 06:14:41;;;;;;;20.40;8.38;;;;;;;13.24;56.06;101671.22;5025204;28;98889;-66
2022/10/13 06:17:09;;;;;;;17.23;7.30;;;;;;;13.32;55.63;101663.03;5025615;27;96893;-67
2022/10/13 06:19:35;;;;;;;19.55;7.85;;;;;;;13.14;56.38;101662.69;5025751;28;96856;-66
2022/10/13 06:22:02;;;;;;;19.65;7.82;;;;;;;13.20;56.52;101674.00;5023571;28;99070;-65
2022/10/13 06:24:28;;;;;;;28.20;8.93;;;;;;;13.27;55.91;101665.81;5018190;28;98822;-66
2022/10/13 06:26:57;;;;;;;14.45;7.95;;;;;;;13.32;55.94;101668.34;5023826;28;97446;-67
2022/10/13 06:29:24;;;;;;;16.13;8.18;;;;;;;13.37;55.80;101661.09;5021141;28;97467;-66
2022/10/13 06:31:50;;;;;;;22.33;8.73;;;;;;;13.50;55.47;101667.72;5021581;27;98669;-67
2022/10/13 06:34:18;;;;;;;20.02;9.43;;;;;;;13.39;55.67;101668.06;5022283;27;99907;-65
2022/10/13 06:36:44;;;;;;;20.98;8.45;;;;;;;13.54;55.41;101669.34;5021765;27;97572;-66
2022/10/13 06:39:11;;;;;;;25.02;8.95;;;;;;;13.68;54.95;101669.75;5028854;27;97103;-66
2022/10/13 06:41:38;;;;;;;20.98;8.23;;;;;;;13.44;55.44;101674.13;5020487;27;101475;-66
2022/10/13 06:44:04;;;;;;;22.38;8.43;;;;;;;13.39;55.67;101670.72;5021308;27;99321;-66
2022/10/13 06:46:31;;;;;;;17.20;8.90;;;;;;;13.56;55.33;101670.19;5019832;27;97328;-67
2022/10/13 06:48:58;;;;;;;19.85;8.63;;;;;;;13.70;54.84;101675.03;5018628;27;98627;-66
2022/10/13 06:51:29;;;;;;;16.27;8.70;;;;;;;13.57;55.18;101672.78;5019194;27;99247;-67
2022/10/13 06:53:55;;;;;;;27.45;9.13;;;;;;;13.52;55.44;101665.91;5019885;27;97558;-66
2022/10/13 06:56:22;;;;;;;22.15;8.32;;;;;;;13.76;54.89;101661.53;5019290;27;97288;-66
2022/10/13 06:58:58;;;;;;;22.65;8.75;;;;;;;13.79;55.01;101666.72;5021503;27;97958;-68
2022/10/13 07:01:24;;;;;;;17.98;8.27;;;;;;;13.61;55.44;101664.72;5021035;27;98784;-65
2022/10/13 07:03:51;;;;;;;17.50;9.02;;;;;;;13.80;55.06;101666.69;5021023;27;99394;-68
2022/10/13 07:06:18;;;;;;;22.38;9.70;;;;;;;13.91;54.94;101669.84;5021430;27;97179;-66
2022/10/13 07:08:46;;;;;;;27.27;9.98;;;;;;;13.95;54.46;101663.50;5024294;28;98682;-66
2022/10/13 07:11:14;;;;;;;22.70;9.30;;;;;;;13.86;54.77;101669.13;5020700;27;99048;-66
2022/10/13 07:13:42;;;;;;;23.08;9.40;;;;;;;14.22;53.92;101658.13;5024660;27;99110;-66
2022/10/13 07:16:09;;;;;;;23.77;9.45;;;;;;;14.21;54.09;101659.06;5020784;27;97383;-66
2022/10/13 07:18:36;;;;;;;23.20;9.30;;;;;;;14.22;54.17;101659.00;5022052;27;97124;-67
2022/10/13 07:21:03;;;;;;;25.73;9.88;;;;;;;14.02;54.40;101650.00;5023398;27;99211;-66
2022/10/13 07:23:30;;;;;;;23.83;9.52;;;;;;;14.33;53.96;101646.19;5022555;27;99675;-66
2022/10/13 07:25:58;;;;;;;23.27;10.02;;;;;;;14.40;53.59;101638.88;5021630;27;97523;-67
2022/10/13 07:28:34;;;;;;;23.42;9.68;;;;;;;14.38;53.90;101634.53;5018367;28;97232;-67
2022/10/13 07:31:00;;;;;;;28.87;9.60;;;;;;;14.59;53.17;101650.56;5023427;27;99201;-68
2022/10/13 07:33:27;;;;;;;24.90;10.48;;;;;;;14.89;52.96;101637.03;5018135;27;98842;-67
2022/10/13 07:35:53;;;;;;;25.88;10.63;;;;;;;14.61;53.29;101634.56;5020302;27;96821;-67
2022/10/13 07:38:19;;;;;;;26.65;10.10;;;;;;;14.58;53.55;101627.53;5020568;27;97387;-66
2022/10/13 07:40:46;;;;;;;22.40;10.65;;;;;;;14.65;53.30;101630.84;5023152;27;99267;-66
2022/10/13 07:43:13;;;;;;;19.02;10.30;;;;;;;14.60;53.72;101632.81;5021258;27;97763;-69
2022/10/13 07:45:40;;;;;;;23.73;10.70;;;;;;;14.86;53.25;101637.13;5021909;27;97035;-67
2022/10/13 07:48:06;;;;;;;23.95;10.80;;;;;;;14.98;52.89;101634.84;5020260;27;97619;-66
2022/10/13 07:50:33;;;;;;;23.75;10.77;;;;;;;14.87;52.95;101630.88;5020320;27;99692;-65
2022/10/13 07:52:59;;;;;;;25.55;11.82;;;;;;;14.99;52.93;101625.06;5017768;27;98925;-66
2022/10/13 07:55:26;;;;;;;22.58;10.45;;;;;;;15.39;52.26;101634.97;5017604;27;98054;-66
2022/10/13 07:57:52;;;;;;;17.58;9.45;;;;;;;15.44;51.99;101631.19;5024601;27;97404;-66
2022/10/13 08:00:20;;;;;;;29.30;11.43;;;;;;;15.84;51.20;101632.19;5022537;27;99282;-66
2022/10/13 08:02:50;;;;;;;25.45;10.95;;;;;;;16.00;50.49;101630.59;5008912;27;99129;-67
2022/10/13 08:05:16;;;;;;;22.15;11.40;;;;;;;15.97;50.56;101627.19;5020953;27;100935;-66
2022/10/13 08:07:42;;;;;;;25.63;10.30;;;;;;;16.19;50.19;101626.19;5026249;27;96824;-66
2022/10/13 08:10:09;;;;;;;21.45;10.63;;;;;;;16.42;49.56;101613.59;5024147;27;99400;-66
2022/10/13 08:12:36;;;;;;;23.98;11.38;;;;;;;16.46;49.49;101618.72;5024233;27;98913;-66
2022/10/13 08:15:03;;;;;;;18.65;10.85;;;;;;;16.33;50.05;101615.75;5023260;27;97609;-66
2022/10/13 08:17:30;;;;;;;27.13;11.57;;;;;;;16.42;49.83;101613.59;5024471;27;97423;-66
2022/10/13 08:19:57;;;;;;;26.10;10.52;;;;;;;16.41;50.04;101603.88;5023884;27;99369;-67
2022/10/13 08:22:24;;;;;;;22.92;11.95;;;;;;;16.47;49.90;101612.47;5020296;27;99240;-66
2022/10/13 08:24:50;;;;;;;23.85;12.52;;;;;;;16.10;50.53;101618.59;5025636;27;97994;-66
2022/10/13 08:27:20;;;;;;;27.33;14.52;;;;;;;16.15;50.95;101611.25;5022521;27;98470;-66
2022/10/13 08:29:47;;;;;;;21.50;11.75;;;;;;;16.20;50.90;101616.38;5021142;27;99421;-65
2022/10/13 08:32:13;;;;;;;22.00;11.93;;;;;;;16.55;50.22;101606.75;5024930;27;99327;-66
2022/10/13 08:34:41;;;;;;;21.40;11.30;;;;;;;16.42;50.43;101603.78;5018773;27;97432;-67
2022/10/13 08:37:13;;;;;;;25.95;12.60;;;;;;;16.92;49.31;101605.91;5020519;27;98794;-66
2022/10/13 08:39:39;;;;;;;19.83;10.80;;;;;;;16.81;49.40;101603.75;5025414;27;99143;-66
2022/10/13 08:42:14;;;;;;;23.55;11.65;;;;;;;16.90;49.46;101602.44;5027243;27;99460;-65
2022/10/13 08:44:45;;;;;;;25.30;12.07;;;;;;;17.21;48.78;101607.16;5025363;27;97290;-66
2022/10/13 08:47:17;;;;;;;27.90;12.10;;;;;;;17.19;48.88;101599.25;5024119;27;98649;-66
2022/10/13 08:49:45;;;;;;;30.20;11.85;;;;;;;17.35;48.57;101604.66;5023608;27;99286;-66
2022/10/13 08:52:18;;;;;;;22.30;11.10;;;;;;;17.31;48.96;101600.44;5029629;27;98942;-66
2022/10/13 08:54:44;;;;;;;22.10;12.27;;;;;;;17.26;48.96;101595.31;5022097;27;98631;-67
2022/10/13 08:57:11;;;;;;;24.00;11.82;;;;;;;17.74;48.25;101591.97;5023995;27;98028;-66
2022/10/13 08:59:37;;;;;;;18.95;11.15;;;;;;;18.03;47.47;101589.59;5019005;27;99756;-66
2022/10/13 09:02:12;;;;;;;23.05;11.30;;;;;;;18.11;47.21;101582.03;5024808;27;98944;-66
2022/10/13 09:04:45;;;;;;;24.42;11.38;;;;;;;18.11;47.50;101584.72;5026231;28;97433;-67
2022/10/13 09:07:20;;;;;;;22.45;11.63;;;;;;;18.25;47.22;101583.00;5026086;27;97582;-66
2022/10/13 09:09:51;;;;;;;51.57;12.87;;;;;;;18.15;47.53;101573.75;5022173;27;101550;-66
2022/10/13 09:12:20;;;;;;;23.17;12.43;;;;;;;18.33;46.94;101578.09;5021423;27;99026;-68
2022/10/13 09:14:58;;;;;;;20.77;12.23;;;;;;;18.33;47.29;101572.75;5020557;27;97622;-67
2022/10/13 09:17:26;;;;;;;20.48;11.57;;;;;;;18.15;47.52;101575.56;5025639;27;97046;-66
2022/10/13 09:20:14;;;;;;;24.20;11.60;;;;;;;18.33;47.10;101578.09;5022833;27;99025;-71
2022/10/13 09:22:42;;;;;;;30.27;11.70;;;;;;;18.29;47.20;101581.03;5022598;27;98944;-67
2022/10/13 09:25:18;;;;;;;27.95;12.52;;;;;;;18.47;46.96;101580.03;5023740;27;97303;-67
2022/10/13 09:27:47;;;;;;;31.08;11.88;;;;;;;18.29;47.72;101576.56;5020874;27;96897;-67
2022/10/13 09:30:27;;;;;;;22.42;11.70;;;;;;;18.52;47.75;101577.94;5023351;28;99156;-66
2022/10/13 09:33:06;;;;;;;25.80;11.80;;;;;;;18.59;47.21;101576.69;5023233;27;99982;-66
2022/10/13 09:35:33;;;;;;;21.77;11.93;;;;;;;18.31;48.05;101590.69;5018834;27;100033;-67
2022/10/13 09:38:06;;;;;;;38.55;13.13;;;;;;;18.33;48.06;101580.78;5026013;27;98585;-66
2022/10/13 09:40:33;;;;;;;30.48;12.18;;;;;;;18.46;48.06;101578.28;5022692;27;102015;-67
2022/10/13 09:43:02;;;;;;;28.38;12.55;;;;;;;18.68;47.60;101575.31;5023725;27;100232;-66
2022/10/13 09:45:29;;;;;;;23.13;12.20;;;;;;;18.64;47.94;101581.81;5022489;27;97225;-67
2022/10/13 09:47:59;;;;;;;29.65;13.98;;;;;;;18.88;47.70;101579.56;5025852;27;96881;-66
2022/10/13 09:50:29;;;;;;;22.27;11.63;;;;;;;18.86;47.48;101579.63;5023780;27;97776;-66
2022/10/13 09:53:17;;;;;;;20.25;12.15;;;;;;;18.88;47.44;101576.88;5024849;27;98793;-67
2022/10/13 09:55:45;;;;;;;22.17;11.45;;;;;;;18.66;47.69;101587.94;5020411;27;96794;-66
2022/10/13 09:58:18;;;;;;;18.42;11.68;;;;;;;19.07;47.38;101580.22;5023463;27;96945;-67
2022/10/13 10:00:45;;;;;;;27.73;13.00;;;;;;;19.16;47.05;101584.19;5025964;27;99577;-67
2022/10/13 10:03:17;;;;;;;27.13;12.75;;;;;;;18.76;47.82;101580.25;5017418;27;99188;-64
2022/10/13 10:05:49;;;;;;;22.88;11.68;;;;;;;19.00;47.45;101573.50;5023995;27;97711;-66
2022/10/13 10:08:26;;;;;;;22.80;12.35;;;;;;;19.30;47.18;101577.06;5026418;27;96791;-67
2022/10/13 10:10:55;;;;;;;21.55;12.77;;;;;;;19.46;46.78;101577.94;5021536;27;99483;-67
2022/10/13 10:13:23;;;;;;;34.50;12.65;;;;;;;19.47;46.63;101573.44;5021797;27;98786;-66
2022/10/13 10:15:55;;;;;;;30.20;13.48;;;;;;;19.49;46.92;101569.69;5017934;27;97291;-67
2022/10/13 10:18:29;;;;;;;22.23;12.45;;;;;;;19.80;46.63;101571.41;5022286;27;99014;-66
2022/10/13 10:21:06;;;;;;;24.33;12.75;;;;;;;19.98;45.97;101569.41;5023287;27;98175;-66
2022/10/13 10:23:42;;;;;;;28.58;13.55;;;;;;;20.32;45.11;101561.94;5021295;27;99146;-67
2022/10/13 10:26:16;;;;;;;28.98;12.77;;;;;;;20.24;45.36;101559.72;5026538;27;96741;-66
2022/10/13 10:28:55;;;;;;;23.17;12.75;;;;;;;20.31;45.25;101555.72;5020975;27;97343;-68
2022/10/13 10:31:37;;;;;;;25.98;13.30;;;;;;;20.24;45.87;101549.88;5018513;27;99320;-66
2022/10/13 10:34:25;;;;;;;25.50;13.07;;;;;;;20.25;46.24;101551.59;5020635;27;99152;-67
2022/10/13 10:37:02;;;;;;;25.60;13.23;;;;;;;20.15;46.00;101542.38;5020031;27;98491;-67
2022/10/13 10:39:36;;;;;;;24.13;12.75;;;;;;;20.37;45.70;101547.28;5025852;27;97366;-67
2022/10/13 10:42:09;;;;;;;30.83;13.25;;;;;;;20.68;45.12;101547.03;5022214;27;99487;-68
2022/10/13 10:44:38;;;;;;;24.73;13.63;;;;;;;20.75;44.70;101538.59;5026369;27;97987;-67
2022/10/13 10:47:21;;;;;;;24.60;13.32;;;;;;;20.45;45.11;101528.03;5022534;27;97586;-68
2022/10/13 10:49:48;;;;;;;30.42;13.90;;;;;;;20.86;44.94;101531.56;5023604;27;96716;-67
2022/10/13 10:52:26;;;;;;;27.35;13.82;;;;;;;20.49;45.58;101526.84;5021207;27;98844;-67
2022/10/13 10:55:04;;;;;;;25.92;12.35;;;;;;;20.36;46.12;101525.91;5025211;27;99150;-67
2022/10/13 10:57:46;;;;;;;23.38;12.60;;;;;;;20.30;46.51;101522.63;5018429;27;96856;-68
2022/10/13 11:00:17;;;;;;;27.95;13.95;;;;;;;20.51;45.90;101524.94;5021836;27;97069;-68
2022/10/13 11:02:55;;;;;;;26.55;11.90;;;;;;;20.71;45.54;101519.13;5024509;27;98078;-66
2022/10/13 11:05:22;;;;;;;21.17;12.75;;;;;;;20.46;45.82;101511.81;5021602;27;97555;-66
2022/10/13 11:07:56;;;;;;;23.90;12.02;;;;;;;20.77;45.60;101505.31;5023321;27;97068;-67
2022/10/13 11:10:26;;;;;;;22.20;11.98;;;;;;;20.93;45.39;101505.16;5022544;27;97010;-66
2022/10/13 11:13:20;;;;;;;19.83;11.20;;;;;;;20.66;46.01;101494.41;5022929;27;99562;-67
2022/10/13 11:15:47;;;;;;;20.67;11.10;;;;;;;20.96;45.35;101500.44;5020761;27;101183;-67
2022/10/13 11:18:53;;;;;;;21.98;11.82;;;;;;;21.06;44.59;101498.88;5022901;27;96848;-67
2022/10/13 11:21:19;;;;;;;25.85;11.43;;;;;;;21.13;44.82;101493.06;5021705;27;97688;-67
2022/10/13 11:23:48;;;;;;;21.77;11.43;;;;;;;20.95;45.09;101498.69;5011080;27;98819;-67